sensor_id;sensor_type;location;lat;lon;timestamp;temperature;humidity
21092;DHT22;10704;42.678;23.288;2023-04-06T00:02:14;0.00;99.90
21092;DHT22;10704;42.678;23.288;2023-04-06T00:04:41;0.00;99.90
21092;DHT22;10704;42.678;23.288;2023-04-06T00:07:07;0.00;99.90
21092;DHT22;10704;42.678;23.288;2023-04-06T00:09:33;0.00;99.90
21092;DHT22;10704;42.678;23.288;2023-04-06T00:11:59;0.00;99.90
21092;DHT22;10704;42.678;23.288;2023-04-06T00:14:25;0.00;99.90
21092;DHT22;10704;42.678;23.288;2023-04-06T00:16:51;0.10;99.90
21092;DHT22;10704;42.678;23.288;2023-04-06T00:19:17;0.10;99.90
21092;DHT22;10704;42.678;23.288;2023-04-06T00:21:43;0.00;99.90
21092;DHT22;10704;42.678;23.288;2023-04-06T00:24:09;0.10;99.90
21092;DHT22;10704;42.678;23.288;2023-04-06T00:26:35;0.10;99.90
21092;DHT22;10704;42.678;23.288;2023-04-06T00:29:01;0.10;99.90
21092;DHT22;10704;42.678;23.288;2023-04-06T00:31:28;0.00;99.90
21092;DHT22;10704;42.678;23.288;2023-04-06T00:33:54;0.10;99.90
21092;DHT22;10704;42.678;23.288;2023-04-06T00:36:20;0.10;99.90
21092;DHT22;10704;42.678;23.288;2023-04-06T00:38:46;0.10;99.90
21092;DHT22;10704;42.678;23.288;2023-04-06T00:41:13;0.10;99.90
21092;DHT22;10704;42.678;23.288;2023-04-06T00:43:39;0.10;99.90
21092;DHT22;10704;42.678;23.288;2023-04-06T00:46:05;0.10;99.90
21092;DHT22;10704;42.678;23.288;2023-04-06T00:48:31;0.10;99.90
21092;DHT22;10704;42.678;23.288;2023-04-06T00:50:59;0.10;99.90
21092;DHT22;10704;42.678;23.288;2023-04-06T00:53:25;0.20;99.90
21092;DHT22;10704;42.678;23.288;2023-04-06T00:55:52;0.20;99.90
21092;DHT22;10704;42.678;23.288;2023-04-06T00:58:19;0.20;99.90
21092;DHT22;10704;42.678;23.288;2023-04-06T01:00:51;0.20;99.90
21092;DHT22;10704;42.678;23.288;2023-04-06T01:03:19;0.20;99.90
21092;DHT22;10704;42.678;23.288;2023-04-06T01:05:46;0.20;99.90
21092;DHT22;10704;42.678;23.288;2023-04-06T01:08:19;0.30;99.90
21092;DHT22;10704;42.678;23.288;2023-04-06T01:10:47;0.30;99.90
21092;DHT22;10704;42.678;23.288;2023-04-06T01:13:24;0.30;99.90
21092;DHT22;10704;42.678;23.288;2023-04-06T01:15:57;0.30;99.90
21092;DHT22;10704;42.678;23.288;2023-04-06T01:18:30;0.30;99.90
21092;DHT22;10704;42.678;23.288;2023-04-06T01:21:16;0.30;99.90
21092;DHT22;10704;42.678;23.288;2023-04-06T01:24:12;0.30;99.90
21092;DHT22;10704;42.678;23.288;2023-04-06T01:26:58;0.30;99.90
21092;DHT22;10704;42.678;23.288;2023-04-06T01:29:27;0.40;99.90
21092;DHT22;10704;42.678;23.288;2023-04-06T01:31:53;0.30;99.90
21092;DHT22;10704;42.678;23.288;2023-04-06T01:34:20;0.40;99.90
21092;DHT22;10704;42.678;23.288;2023-04-06T01:36:46;0.40;99.90
21092;DHT22;10704;42.678;23.288;2023-04-06T01:39:25;0.40;99.90
21092;DHT22;10704;42.678;23.288;2023-04-06T01:41:51;0.40;99.90
21092;DHT22;10704;42.678;23.288;2023-04-06T01:44:20;0.40;99.90
21092;DHT22;10704;42.678;23.288;2023-04-06T01:46:52;0.40;99.90
21092;DHT22;10704;42.678;23.288;2023-04-06T01:49:18;0.40;99.90
21092;DHT22;10704;42.678;23.288;2023-04-06T01:51:49;0.40;99.90
21092;DHT22;10704;42.678;23.288;2023-04-06T01:54:16;0.40;99.90
21092;DHT22;10704;42.678;23.288;2023-04-06T01:56:57;0.40;99.90
21092;DHT22;10704;42.678;23.288;2023-04-06T01:59:46;0.40;99.90
21092;DHT22;10704;42.678;23.288;2023-04-06T02:02:20;0.40;99.90
21092;DHT22;10704;42.678;23.288;2023-04-06T02:04:55;0.40;99.90
21092;DHT22;10704;42.678;23.288;2023-04-06T02:07:22;0.50;99.90
21092;DHT22;10704;42.678;23.288;2023-04-06T02:09:49;0.40;99.90
21092;DHT22;10704;42.678;23.288;2023-04-06T02:12:23;0.50;99.90
21092;DHT22;10704;42.678;23.288;2023-04-06T02:14:49;0.50;99.90
21092;DHT22;10704;42.678;23.288;2023-04-06T02:17:15;0.50;99.90
21092;DHT22;10704;42.678;23.288;2023-04-06T02:19:41;0.50;99.90
21092;DHT22;10704;42.678;23.288;2023-04-06T02:22:07;0.50;99.90
21092;DHT22;10704;42.678;23.288;2023-04-06T02:24:33;0.50;99.90
21092;DHT22;10704;42.678;23.288;2023-04-06T02:26:59;0.50;99.90
21092;DHT22;10704;42.678;23.288;2023-04-06T02:29:26;0.50;99.90
21092;DHT22;10704;42.678;23.288;2023-04-06T02:31:52;0.50;99.90
21092;DHT22;10704;42.678;23.288;2023-04-06T02:34:19;0.60;99.90
21092;DHT22;10704;42.678;23.288;2023-04-06T02:36:49;0.50;99.90
21092;DHT22;10704;42.678;23.288;2023-04-06T02:39:15;0.50;99.90
21092;DHT22;10704;42.678;23.288;2023-04-06T02:41:41;0.50;99.90
21092;DHT22;10704;42.678;23.288;2023-04-06T02:44:08;0.50;99.90
21092;DHT22;10704;42.678;23.288;2023-04-06T02:46:41;0.50;99.90
21092;DHT22;10704;42.678;23.288;2023-04-06T02:49:07;0.50;99.90
21092;DHT22;10704;42.678;23.288;2023-04-06T02:51:34;0.50;99.90
21092;DHT22;10704;42.678;23.288;2023-04-06T02:54:27;0.50;99.90
21092;DHT22;10704;42.678;23.288;2023-04-06T02:56:53;0.50;99.90
21092;DHT22;10704;42.678;23.288;2023-04-06T02:59:20;0.50;99.90
21092;DHT22;10704;42.678;23.288;2023-04-06T03:01:57;0.50;99.90
21092;DHT22;10704;42.678;23.288;2023-04-06T03:04:23;0.50;99.90
21092;DHT22;10704;42.678;23.288;2023-04-06T03:06:53;0.50;99.90
21092;DHT22;10704;42.678;23.288;2023-04-06T03:09:31;0.50;99.90
21092;DHT22;10704;42.678;23.288;2023-04-06T03:11:57;0.50;99.90
21092;DHT22;10704;42.678;23.288;2023-04-06T03:14:23;0.50;99.90
21092;DHT22;10704;42.678;23.288;2023-04-06T03:16:49;0.60;99.90
21092;DHT22;10704;42.678;23.288;2023-04-06T03:19:19;0.60;99.90
21092;DHT22;10704;42.678;23.288;2023-04-06T03:21:46;0.60;99.90
21092;DHT22;10704;42.678;23.288;2023-04-06T03:24:13;0.60;99.90
21092;DHT22;10704;42.678;23.288;2023-04-06T03:26:39;0.50;99.90
21092;DHT22;10704;42.678;23.288;2023-04-06T03:29:07;0.50;99.90
21092;DHT22;10704;42.678;23.288;2023-04-06T03:31:33;0.50;99.90
21092;DHT22;10704;42.678;23.288;2023-04-06T03:34:05;0.50;99.90
21092;DHT22;10704;42.678;23.288;2023-04-06T03:36:34;0.50;99.90
21092;DHT22;10704;42.678;23.288;2023-04-06T03:39:02;0.50;99.90
21092;DHT22;10704;42.678;23.288;2023-04-06T03:41:31;0.60;99.90
21092;DHT22;10704;42.678;23.288;2023-04-06T03:44:03;0.50;99.90
21092;DHT22;10704;42.678;23.288;2023-04-06T03:46:29;0.60;99.90
21092;DHT22;10704;42.678;23.288;2023-04-06T03:48:57;0.60;99.90
21092;DHT22;10704;42.678;23.288;2023-04-06T03:51:23;0.60;99.90
21092;DHT22;10704;42.678;23.288;2023-04-06T03:53:50;0.60;99.90
21092;DHT22;10704;42.678;23.288;2023-04-06T03:56:17;0.70;99.90
21092;DHT22;10704;42.678;23.288;2023-04-06T03:58:43;0.70;99.90
21092;DHT22;10704;42.678;23.288;2023-04-06T04:01:11;0.70;99.90
21092;DHT22;10704;42.678;23.288;2023-04-06T04:03:37;0.70;99.90
21092;DHT22;10704;42.678;23.288;2023-04-06T04:06:03;0.80;99.90
21092;DHT22;10704;42.678;23.288;2023-04-06T04:08:29;0.80;99.90
21092;DHT22;10704;42.678;23.288;2023-04-06T04:10:55;0.80;99.90
21092;DHT22;10704;42.678;23.288;2023-04-06T04:13:22;0.80;99.90
21092;DHT22;10704;42.678;23.288;2023-04-06T04:15:50;0.80;99.90
21092;DHT22;10704;42.678;23.288;2023-04-06T04:18:16;0.80;99.90
21092;DHT22;10704;42.678;23.288;2023-04-06T04:20:42;0.70;99.90
21092;DHT22;10704;42.678;23.288;2023-04-06T04:23:10;0.80;99.90
21092;DHT22;10704;42.678;23.288;2023-04-06T04:25:36;0.80;99.90
21092;DHT22;10704;42.678;23.288;2023-04-06T04:28:02;0.80;99.90
21092;DHT22;10704;42.678;23.288;2023-04-06T04:30:29;0.80;99.90
21092;DHT22;10704;42.678;23.288;2023-04-06T04:32:55;0.80;99.90
21092;DHT22;10704;42.678;23.288;2023-04-06T04:35:22;0.80;99.90
21092;DHT22;10704;42.678;23.288;2023-04-06T04:37:49;1.00;99.90
21092;DHT22;10704;42.678;23.288;2023-04-06T04:40:15;1.00;99.90
21092;DHT22;10704;42.678;23.288;2023-04-06T04:43:08;1.70;99.90
21092;DHT22;10704;42.678;23.288;2023-04-06T04:45:34;1.20;99.90
21092;DHT22;10704;42.678;23.288;2023-04-06T04:48:11;1.00;99.90
21092;DHT22;10704;42.678;23.288;2023-04-06T04:50:49;1.00;99.90
21092;DHT22;10704;42.678;23.288;2023-04-06T04:53:16;1.00;99.90
21092;DHT22;10704;42.678;23.288;2023-04-06T04:55:43;0.90;99.90
21092;DHT22;10704;42.678;23.288;2023-04-06T04:58:11;0.90;99.90
21092;DHT22;10704;42.678;23.288;2023-04-06T05:00:47;0.90;99.90
21092;DHT22;10704;42.678;23.288;2023-04-06T05:03:20;0.90;99.90
21092;DHT22;10704;42.678;23.288;2023-04-06T05:05:54;1.00;99.90
21092;DHT22;10704;42.678;23.288;2023-04-06T05:08:24;1.10;99.90
21092;DHT22;10704;42.678;23.288;2023-04-06T05:10:50;1.10;99.90
21092;DHT22;10704;42.678;23.288;2023-04-06T05:13:17;1.10;99.90
21092;DHT22;10704;42.678;23.288;2023-04-06T05:15:45;1.10;99.90
21092;DHT22;10704;42.678;23.288;2023-04-06T05:18:31;1.20;99.90
21092;DHT22;10704;42.678;23.288;2023-04-06T05:20:58;1.10;99.90
21092;DHT22;10704;42.678;23.288;2023-04-06T05:23:36;1.20;99.90
21092;DHT22;10704;42.678;23.288;2023-04-06T05:26:02;1.20;99.90
21092;DHT22;10704;42.678;23.288;2023-04-06T05:28:29;1.30;99.90
21092;DHT22;10704;42.678;23.288;2023-04-06T05:30:56;1.40;99.90
21092;DHT22;10704;42.678;23.288;2023-04-06T05:33:23;1.60;99.90
21092;DHT22;10704;42.678;23.288;2023-04-06T05:36:10;1.60;99.90
21092;DHT22;10704;42.678;23.288;2023-04-06T05:38:40;1.60;99.90
21092;DHT22;10704;42.678;23.288;2023-04-06T05:41:19;1.50;99.90
21092;DHT22;10704;42.678;23.288;2023-04-06T05:44:05;1.50;99.90
21092;DHT22;10704;42.678;23.288;2023-04-06T05:46:31;1.50;99.90
21092;DHT22;10704;42.678;23.288;2023-04-06T05:48:59;1.50;99.90
21092;DHT22;10704;42.678;23.288;2023-04-06T05:51:29;1.60;99.90
21092;DHT22;10704;42.678;23.288;2023-04-06T05:53:55;1.60;99.90
21092;DHT22;10704;42.678;23.288;2023-04-06T05:56:21;1.60;99.90
21092;DHT22;10704;42.678;23.288;2023-04-06T05:58:47;1.70;99.90
21092;DHT22;10704;42.678;23.288;2023-04-06T06:01:18;1.70;99.90
21092;DHT22;10704;42.678;23.288;2023-04-06T06:03:46;1.90;99.90
21092;DHT22;10704;42.678;23.288;2023-04-06T06:06:12;1.80;99.90
21092;DHT22;10704;42.678;23.288;2023-04-06T06:08:49;1.90;99.90
21092;DHT22;10704;42.678;23.288;2023-04-06T06:11:17;1.80;99.90
21092;DHT22;10704;42.678;23.288;2023-04-06T06:13:43;1.90;99.90
21092;DHT22;10704;42.678;23.288;2023-04-06T06:16:09;2.00;99.90
21092;DHT22;10704;42.678;23.288;2023-04-06T06:18:41;1.80;99.90
21092;DHT22;10704;42.678;23.288;2023-04-06T06:21:07;1.80;99.90
21092;DHT22;10704;42.678;23.288;2023-04-06T06:23:33;2.10;99.90
21092;DHT22;10704;42.678;23.288;2023-04-06T06:25:59;2.20;99.90
21092;DHT22;10704;42.678;23.288;2023-04-06T06:28:27;2.40;99.90
21092;DHT22;10704;42.678;23.288;2023-04-06T06:30:53;2.60;99.90
21092;DHT22;10704;42.678;23.288;2023-04-06T06:33:22;2.50;99.90
21092;DHT22;10704;42.678;23.288;2023-04-06T06:35:51;2.40;99.90
21092;DHT22;10704;42.678;23.288;2023-04-06T06:38:17;2.40;99.90
21092;DHT22;10704;42.678;23.288;2023-04-06T06:40:45;2.50;99.90
21092;DHT22;10704;42.678;23.288;2023-04-06T06:43:12;2.50;99.90
21092;DHT22;10704;42.678;23.288;2023-04-06T06:46:00;2.40;99.90
21092;DHT22;10704;42.678;23.288;2023-04-06T06:48:26;2.50;99.90
21092;DHT22;10704;42.678;23.288;2023-04-06T06:50:53;2.70;99.90
21092;DHT22;10704;42.678;23.288;2023-04-06T06:53:19;2.80;99.90
21092;DHT22;10704;42.678;23.288;2023-04-06T06:55:45;2.60;99.90
21092;DHT22;10704;42.678;23.288;2023-04-06T06:58:11;2.80;99.90
21092;DHT22;10704;42.678;23.288;2023-04-06T07:00:37;3.00;99.90
21092;DHT22;10704;42.678;23.288;2023-04-06T07:03:04;3.20;99.90
21092;DHT22;10704;42.678;23.288;2023-04-06T07:05:30;3.30;99.90
21092;DHT22;10704;42.678;23.288;2023-04-06T07:07:57;3.30;99.90
21092;DHT22;10704;42.678;23.288;2023-04-06T07:10:25;3.40;99.90
21092;DHT22;10704;42.678;23.288;2023-04-06T07:12:52;3.30;99.90
21092;DHT22;10704;42.678;23.288;2023-04-06T07:15:18;3.20;99.90
21092;DHT22;10704;42.678;23.288;2023-04-06T07:17:44;3.00;99.90
21092;DHT22;10704;42.678;23.288;2023-04-06T07:20:13;3.10;99.90
21092;DHT22;10704;42.678;23.288;2023-04-06T07:22:40;3.30;99.90
21092;DHT22;10704;42.678;23.288;2023-04-06T07:25:06;3.30;99.90
21092;DHT22;10704;42.678;23.288;2023-04-06T07:27:32;3.10;99.90
21092;DHT22;10704;42.678;23.288;2023-04-06T07:29:59;3.20;99.90
21092;DHT22;10704;42.678;23.288;2023-04-06T07:32:25;3.50;99.90
21092;DHT22;10704;42.678;23.288;2023-04-06T07:34:52;3.70;99.90
21092;DHT22;10704;42.678;23.288;2023-04-06T07:37:18;3.70;99.90
21092;DHT22;10704;42.678;23.288;2023-04-06T07:39:44;3.80;99.90
21092;DHT22;10704;42.678;23.288;2023-04-06T07:42:11;3.90;99.90
21092;DHT22;10704;42.678;23.288;2023-04-06T07:44:37;3.90;99.90
21092;DHT22;10704;42.678;23.288;2023-04-06T07:47:03;4.00;99.90
21092;DHT22;10704;42.678;23.288;2023-04-06T07:49:29;4.40;99.90
21092;DHT22;10704;42.678;23.288;2023-04-06T07:51:56;4.70;99.90
21092;DHT22;10704;42.678;23.288;2023-04-06T07:54:22;4.90;99.90
21092;DHT22;10704;42.678;23.288;2023-04-06T07:56:48;5.10;99.90
21092;DHT22;10704;42.678;23.288;2023-04-06T07:59:14;5.10;99.90
21092;DHT22;10704;42.678;23.288;2023-04-06T08:01:40;5.20;99.90
21092;DHT22;10704;42.678;23.288;2023-04-06T08:04:06;5.50;99.90
21092;DHT22;10704;42.678;23.288;2023-04-06T08:06:32;5.80;99.90
21092;DHT22;10704;42.678;23.288;2023-04-06T08:08:58;6.00;99.90
21092;DHT22;10704;42.678;23.288;2023-04-06T08:11:23;6.00;99.90
21092;DHT22;10704;42.678;23.288;2023-04-06T08:13:50;5.90;99.90
21092;DHT22;10704;42.678;23.288;2023-04-06T08:16:16;5.70;99.90
21092;DHT22;10704;42.678;23.288;2023-04-06T08:18:42;6.50;99.90
21092;DHT22;10704;42.678;23.288;2023-04-06T08:21:08;6.40;99.90
21092;DHT22;10704;42.678;23.288;2023-04-06T08:23:34;6.30;99.90
21092;DHT22;10704;42.678;23.288;2023-04-06T08:26:00;6.30;99.90
21092;DHT22;10704;42.678;23.288;2023-04-06T08:28:26;5.60;99.90
21092;DHT22;10704;42.678;23.288;2023-04-06T08:30:52;6.70;99.90
21092;DHT22;10704;42.678;23.288;2023-04-06T08:33:18;7.30;99.90
21092;DHT22;10704;42.678;23.288;2023-04-06T08:35:44;7.10;99.90
21092;DHT22;10704;42.678;23.288;2023-04-06T08:38:10;6.70;98.60
21092;DHT22;10704;42.678;23.288;2023-04-06T08:40:39;6.10;99.90
21092;DHT22;10704;42.678;23.288;2023-04-06T08:43:08;5.80;99.90
21092;DHT22;10704;42.678;23.288;2023-04-06T08:45:38;5.00;99.90
21092;DHT22;10704;42.678;23.288;2023-04-06T08:48:05;4.50;99.90
21092;DHT22;10704;42.678;23.288;2023-04-06T08:50:33;4.90;99.90
21092;DHT22;10704;42.678;23.288;2023-04-06T08:52:59;5.10;99.90
21092;DHT22;10704;42.678;23.288;2023-04-06T08:55:27;5.60;99.90
21092;DHT22;10704;42.678;23.288;2023-04-06T08:57:54;6.20;99.90
21092;DHT22;10704;42.678;23.288;2023-04-06T09:00:21;5.80;99.90
21092;DHT22;10704;42.678;23.288;2023-04-06T09:02:49;5.30;99.90
21092;DHT22;10704;42.678;23.288;2023-04-06T09:05:16;5.90;99.90
21092;DHT22;10704;42.678;23.288;2023-04-06T09:07:42;6.90;98.10
21092;DHT22;10704;42.678;23.288;2023-04-06T09:10:08;7.40;95.70
21092;DHT22;10704;42.678;23.288;2023-04-06T09:12:34;7.70;94.50
21092;DHT22;10704;42.678;23.288;2023-04-06T09:15:01;7.70;93.50
21092;DHT22;10704;42.678;23.288;2023-04-06T09:17:30;8.00;92.50
21092;DHT22;10704;42.678;23.288;2023-04-06T09:20:02;7.60;93.50
21092;DHT22;10704;42.678;23.288;2023-04-06T09:22:39;7.60;94.10
21092;DHT22;10704;42.678;23.288;2023-04-06T09:25:05;6.80;94.70
21092;DHT22;10704;42.678;23.288;2023-04-06T09:27:33;6.10;96.80
21092;DHT22;10704;42.678;23.288;2023-04-06T09:30:10;5.70;98.80
21092;DHT22;10704;42.678;23.288;2023-04-06T09:32:50;6.20;98.10
21092;DHT22;10704;42.678;23.288;2023-04-06T09:35:17;6.30;96.20
21092;DHT22;10704;42.678;23.288;2023-04-06T09:37:44;6.10;96.90
21092;DHT22;10704;42.678;23.288;2023-04-06T09:40:10;5.50;97.60
21092;DHT22;10704;42.678;23.288;2023-04-06T09:42:36;5.20;99.90
21092;DHT22;10704;42.678;23.288;2023-04-06T09:45:03;5.10;99.90
21092;DHT22;10704;42.678;23.288;2023-04-06T09:47:30;4.70;99.90
21092;DHT22;10704;42.678;23.288;2023-04-06T09:49:58;4.90;99.90
21092;DHT22;10704;42.678;23.288;2023-04-06T09:52:49;6.00;99.70
21092;DHT22;10704;42.678;23.288;2023-04-06T09:55:40;7.20;95.40
21092;DHT22;10704;42.678;23.288;2023-04-06T09:58:10;7.60;92.10
21092;DHT22;10704;42.678;23.288;2023-04-06T10:01:00;6.70;92.70
21092;DHT22;10704;42.678;23.288;2023-04-06T10:06:16;7.00;90.80
21092;DHT22;10704;42.678;23.288;2023-04-06T10:08:45;7.30;91.30
21092;DHT22;10704;42.678;23.288;2023-04-06T10:11:13;6.60;91.20
21092;DHT22;10704;42.678;23.288;2023-04-06T10:13:40;6.30;92.00
21092;DHT22;10704;42.678;23.288;2023-04-06T10:16:08;6.70;91.50
21092;DHT22;10704;42.678;23.288;2023-04-06T10:18:34;7.70;90.00
21092;DHT22;10704;42.678;23.288;2023-04-06T10:21:06;6.80;89.50
21092;DHT22;10704;42.678;23.288;2023-04-06T10:23:44;6.10;92.50
21092;DHT22;10704;42.678;23.288;2023-04-06T10:26:19;6.40;92.90
21092;DHT22;10704;42.678;23.288;2023-04-06T10:28:47;6.40;92.50
21092;DHT22;10704;42.678;23.288;2023-04-06T10:31:13;6.10;92.20
21092;DHT22;10704;42.678;23.288;2023-04-06T10:33:40;6.10;92.60
21092;DHT22;10704;42.678;23.288;2023-04-06T10:36:27;6.60;92.40
21092;DHT22;10704;42.678;23.288;2023-04-06T10:38:58;7.60;91.70
21092;DHT22;10704;42.678;23.288;2023-04-06T10:41:31;8.30;89.00
21092;DHT22;10704;42.678;23.288;2023-04-06T10:43:57;9.60;84.20
21092;DHT22;10704;42.678;23.288;2023-04-06T10:46:28;9.80;79.30
21092;DHT22;10704;42.678;23.288;2023-04-06T10:48:54;9.40;79.50
21092;DHT22;10704;42.678;23.288;2023-04-06T10:51:26;8.90;80.20
21092;DHT22;10704;42.678;23.288;2023-04-06T10:53:53;8.40;82.50
21092;DHT22;10704;42.678;23.288;2023-04-06T10:56:22;7.80;83.50
21092;DHT22;10704;42.678;23.288;2023-04-06T10:58:54;7.80;85.00
21092;DHT22;10704;42.678;23.288;2023-04-06T11:01:22;7.70;86.30
21092;DHT22;10704;42.678;23.288;2023-04-06T11:03:54;7.60;85.80
21092;DHT22;10704;42.678;23.288;2023-04-06T11:06:24;7.60;85.40
21092;DHT22;10704;42.678;23.288;2023-04-06T11:08:51;7.80;84.60
21092;DHT22;10704;42.678;23.288;2023-04-06T11:11:19;8.10;83.20
21092;DHT22;10704;42.678;23.288;2023-04-06T11:13:51;8.60;82.20
21092;DHT22;10704;42.678;23.288;2023-04-06T11:18:51;8.50;82.90
21092;DHT22;10704;42.678;23.288;2023-04-06T11:21:19;8.60;82.90
21092;DHT22;10704;42.678;23.288;2023-04-06T11:23:45;8.90;82.70
21092;DHT22;10704;42.678;23.288;2023-04-06T11:26:13;9.20;80.70
21092;DHT22;10704;42.678;23.288;2023-04-06T11:28:40;8.60;80.00
21092;DHT22;10704;42.678;23.288;2023-04-06T11:31:08;7.90;83.30
21092;DHT22;10704;42.678;23.288;2023-04-06T11:33:38;8.30;82.70
21092;DHT22;10704;42.678;23.288;2023-04-06T11:36:05;7.80;82.90
21092;DHT22;10704;42.678;23.288;2023-04-06T11:38:31;7.70;83.80
21092;DHT22;10704;42.678;23.288;2023-04-06T11:40:57;7.80;83.50
21092;DHT22;10704;42.678;23.288;2023-04-06T11:43:29;7.70;84.30
21092;DHT22;10704;42.678;23.288;2023-04-06T11:46:04;7.50;85.10
21092;DHT22;10704;42.678;23.288;2023-04-06T11:48:31;6.90;86.60
21092;DHT22;10704;42.678;23.288;2023-04-06T11:51:01;7.10;88.70
21092;DHT22;10704;42.678;23.288;2023-04-06T11:53:29;7.00;87.30
21092;DHT22;10704;42.678;23.288;2023-04-06T11:55:56;7.20;87.40
21092;DHT22;10704;42.678;23.288;2023-04-06T11:58:22;7.00;87.30
21092;DHT22;10704;42.678;23.288;2023-04-06T12:00:48;7.10;87.50
21092;DHT22;10704;42.678;23.288;2023-04-06T12:03:14;7.00;87.40
21092;DHT22;10704;42.678;23.288;2023-04-06T12:05:40;6.80;88.10
21092;DHT22;10704;42.678;23.288;2023-04-06T12:08:06;6.90;88.50
21092;DHT22;10704;42.678;23.288;2023-04-06T12:10:32;6.90;88.30
21092;DHT22;10704;42.678;23.288;2023-04-06T12:12:58;7.00;86.60
21092;DHT22;10704;42.678;23.288;2023-04-06T12:15:24;7.00;87.50
21092;DHT22;10704;42.678;23.288;2023-04-06T12:17:50;6.90;87.30
21092;DHT22;10704;42.678;23.288;2023-04-06T12:20:16;6.70;89.20
21092;DHT22;10704;42.678;23.288;2023-04-06T12:22:42;6.40;89.30
21092;DHT22;10704;42.678;23.288;2023-04-06T12:25:08;6.40;90.30
21092;DHT22;10704;42.678;23.288;2023-04-06T12:27:34;6.40;90.80
21092;DHT22;10704;42.678;23.288;2023-04-06T12:30:00;6.40;90.40
21092;DHT22;10704;42.678;23.288;2023-04-06T12:32:27;6.40;91.00
21092;DHT22;10704;42.678;23.288;2023-04-06T12:34:53;6.50;90.30
21092;DHT22;10704;42.678;23.288;2023-04-06T12:37:19;6.60;90.40
21092;DHT22;10704;42.678;23.288;2023-04-06T12:39:46;6.40;90.00
21092;DHT22;10704;42.678;23.288;2023-04-06T12:42:12;6.40;90.70
21092;DHT22;10704;42.678;23.288;2023-04-06T12:44:39;6.50;90.60
21092;DHT22;10704;42.678;23.288;2023-04-06T12:47:05;6.40;90.70
21092;DHT22;10704;42.678;23.288;2023-04-06T12:49:33;6.30;90.20
21092;DHT22;10704;42.678;23.288;2023-04-06T12:51:58;6.40;89.80
21092;DHT22;10704;42.678;23.288;2023-04-06T12:54:25;6.40;89.70
21092;DHT22;10704;42.678;23.288;2023-04-06T12:56:52;6.10;89.70
21092;DHT22;10704;42.678;23.288;2023-04-06T12:59:18;6.40;90.20
21092;DHT22;10704;42.678;23.288;2023-04-06T13:01:44;6.50;90.00
21092;DHT22;10704;42.678;23.288;2023-04-06T13:04:10;6.30;90.40
21092;DHT22;10704;42.678;23.288;2023-04-06T13:06:36;6.30;90.60
21092;DHT22;10704;42.678;23.288;2023-04-06T13:09:02;6.40;91.10
21092;DHT22;10704;42.678;23.288;2023-04-06T13:11:30;6.20;91.10
21092;DHT22;10704;42.678;23.288;2023-04-06T13:13:55;6.40;90.80
21092;DHT22;10704;42.678;23.288;2023-04-06T13:16:21;6.40;88.40
21092;DHT22;10704;42.678;23.288;2023-04-06T13:18:47;6.40;89.20
21092;DHT22;10704;42.678;23.288;2023-04-06T13:21:14;6.50;89.60
21092;DHT22;10704;42.678;23.288;2023-04-06T13:23:44;6.50;88.70
21092;DHT22;10704;42.678;23.288;2023-04-06T13:26:10;6.20;87.90
21092;DHT22;10704;42.678;23.288;2023-04-06T13:28:37;6.20;88.40
21092;DHT22;10704;42.678;23.288;2023-04-06T13:31:04;6.30;88.20
21092;DHT22;10704;42.678;23.288;2023-04-06T13:33:31;6.10;89.20
21092;DHT22;10704;42.678;23.288;2023-04-06T13:35:57;6.30;89.10
21092;DHT22;10704;42.678;23.288;2023-04-06T13:38:24;6.60;89.30
21092;DHT22;10704;42.678;23.288;2023-04-06T13:40:50;6.70;88.50
21092;DHT22;10704;42.678;23.288;2023-04-06T13:43:16;6.50;86.90
21092;DHT22;10704;42.678;23.288;2023-04-06T13:45:52;6.20;87.90
21092;DHT22;10704;42.678;23.288;2023-04-06T13:48:20;6.20;88.30
21092;DHT22;10704;42.678;23.288;2023-04-06T13:50:46;6.20;88.60
21092;DHT22;10704;42.678;23.288;2023-04-06T13:53:12;6.20;87.00
21092;DHT22;10704;42.678;23.288;2023-04-06T13:55:38;6.40;87.30
21092;DHT22;10704;42.678;23.288;2023-04-06T13:58:04;6.20;86.30
21092;DHT22;10704;42.678;23.288;2023-04-06T14:00:30;6.10;87.70
21092;DHT22;10704;42.678;23.288;2023-04-06T14:02:56;6.10;88.40
21092;DHT22;10704;42.678;23.288;2023-04-06T14:05:22;6.10;88.80
21092;DHT22;10704;42.678;23.288;2023-04-06T14:07:49;6.00;88.50
21092;DHT22;10704;42.678;23.288;2023-04-06T14:10:16;6.10;88.70
21092;DHT22;10704;42.678;23.288;2023-04-06T14:12:42;6.30;87.70
21092;DHT22;10704;42.678;23.288;2023-04-06T14:15:11;6.20;87.80
21092;DHT22;10704;42.678;23.288;2023-04-06T14:17:37;6.10;88.50
21092;DHT22;10704;42.678;23.288;2023-04-06T14:20:05;6.00;88.90
21092;DHT22;10704;42.678;23.288;2023-04-06T14:22:32;6.10;88.50
21092;DHT22;10704;42.678;23.288;2023-04-06T14:24:58;6.10;88.60
21092;DHT22;10704;42.678;23.288;2023-04-06T14:27:24;6.10;88.00
21092;DHT22;10704;42.678;23.288;2023-04-06T14:29:50;6.10;88.20
21092;DHT22;10704;42.678;23.288;2023-04-06T14:32:16;6.00;89.00
21092;DHT22;10704;42.678;23.288;2023-04-06T14:34:42;5.90;88.80
21092;DHT22;10704;42.678;23.288;2023-04-06T14:37:08;5.90;89.50
21092;DHT22;10704;42.678;23.288;2023-04-06T14:39:34;5.90;89.90
21092;DHT22;10704;42.678;23.288;2023-04-06T14:42:00;5.90;90.00
21092;DHT22;10704;42.678;23.288;2023-04-06T14:44:26;5.70;89.80
21092;DHT22;10704;42.678;23.288;2023-04-06T14:46:52;5.60;88.20
21092;DHT22;10704;42.678;23.288;2023-04-06T14:49:19;5.50;88.20
21092;DHT22;10704;42.678;23.288;2023-04-06T14:51:46;5.60;88.80
21092;DHT22;10704;42.678;23.288;2023-04-06T14:54:12;5.60;89.20
21092;DHT22;10704;42.678;23.288;2023-04-06T14:56:37;5.50;89.70
21092;DHT22;10704;42.678;23.288;2023-04-06T14:59:04;5.40;90.00
21092;DHT22;10704;42.678;23.288;2023-04-06T15:01:34;5.40;90.50
21092;DHT22;10704;42.678;23.288;2023-04-06T15:04:03;5.40;90.70
21092;DHT22;10704;42.678;23.288;2023-04-06T15:06:28;5.40;90.70
21092;DHT22;10704;42.678;23.288;2023-04-06T15:08:54;5.30;91.20
21092;DHT22;10704;42.678;23.288;2023-04-06T15:11:20;5.20;91.40
21092;DHT22;10704;42.678;23.288;2023-04-06T15:13:47;5.00;92.10
21092;DHT22;10704;42.678;23.288;2023-04-06T15:16:13;5.00;92.70
21092;DHT22;10704;42.678;23.288;2023-04-06T15:18:40;5.00;93.00
21092;DHT22;10704;42.678;23.288;2023-04-06T15:21:06;5.00;93.50
21092;DHT22;10704;42.678;23.288;2023-04-06T15:23:33;5.00;94.00
21092;DHT22;10704;42.678;23.288;2023-04-06T15:26:00;4.90;94.50
21092;DHT22;10704;42.678;23.288;2023-04-06T15:28:26;4.80;95.50
21092;DHT22;10704;42.678;23.288;2023-04-06T15:30:53;4.90;96.50
21092;DHT22;10704;42.678;23.288;2023-04-06T15:33:20;5.00;96.40
21092;DHT22;10704;42.678;23.288;2023-04-06T15:35:47;4.80;96.80
21092;DHT22;10704;42.678;23.288;2023-04-06T15:38:13;4.70;97.90
21092;DHT22;10704;42.678;23.288;2023-04-06T15:40:44;4.70;98.70
21092;DHT22;10704;42.678;23.288;2023-04-06T15:43:11;4.70;99.70